createdAt,value
2018-07-25T00:00:21.260Z,79.62
2018-07-25T00:01:31.333Z,79.49
2018-07-25T00:02:41.418Z,79.78
2018-07-25T00:03:51.231Z,79.39
2018-07-25T00:05:01.319Z,79.58
2018-07-25T00:06:11.625Z,79.49
2018-07-25T00:07:21.706Z,79.58
2018-07-25T00:08:31.806Z,79.58
2018-07-25T00:09:41.618Z,79.58
2018-07-25T00:10:51.438Z,79.58
2018-07-25T00:12:01.719Z,79.49
2018-07-25T00:13:11.548Z,79.68
2018-07-25T00:14:21.109Z,79.39
2018-07-25T00:15:31.196Z,79.87
2018-07-25T00:16:41.015Z,79.58
2018-07-25T00:17:51.114Z,79.39
2018-07-25T00:19:00.958Z,79.2
2018-07-25T00:20:10.762Z,79.58
2018-07-25T00:21:21.160Z,79.54
2018-07-25T00:22:31.407Z,79.58
2018-07-25T00:23:41.489Z,79.54
2018-07-25T00:24:51.542Z,79.29
2018-07-25T00:26:01.641Z,79.58
2018-07-25T00:27:11.711Z,79.54
2018-07-25T00:28:21.806Z,79.39
2018-07-25T00:29:31.875Z,79.64
2018-07-25T00:30:42.006Z,79.29
2018-07-25T00:31:51.850Z,79.29
2018-07-25T00:33:01.937Z,79.2
2018-07-25T00:34:12.020Z,79.16
2018-07-25T00:35:22.106Z,79.45
2018-07-25T00:36:32.174Z,79.49
2018-07-25T00:37:41.741Z,79.25
2018-07-25T00:38:51.809Z,79.25
2018-07-25T00:40:02.121Z,79.25
2018-07-25T00:41:12.219Z,79.25
2018-07-25T00:42:22.284Z,79.39
2018-07-25T00:43:32.368Z,79.49
2018-07-25T00:44:42.176Z,79.1
2018-07-25T00:45:51.977Z,79.2
2018-07-25T00:47:02.050Z,79.2
2018-07-25T00:48:12.148Z,79.39
2018-07-25T00:49:22.212Z,79.2
2018-07-25T00:50:32.307Z,79.54
2018-07-25T00:51:42.367Z,79.64
2018-07-25T00:52:51.914Z,79.54
2018-07-25T00:54:02.001Z,79.64
2018-07-25T00:55:12.071Z,79.64
2018-07-25T00:56:21.893Z,79.35
2018-07-25T00:57:31.711Z,79.64
2018-07-25T00:58:41.777Z,79.64
2018-07-25T00:59:51.860Z,79.54
2018-07-25T01:01:01.953Z,79.64
2018-07-25T01:02:11.769Z,79.54
2018-07-25T01:03:21.859Z,79.64
2018-07-25T01:04:31.680Z,79.64
2018-07-25T01:05:41.774Z,79.54
2018-07-25T01:06:51.840Z,79.54
2018-07-25T01:08:01.663Z,79.54
2018-07-25T01:09:11.761Z,79.45
2018-07-25T01:10:21.873Z,79.25
2018-07-25T01:11:31.951Z,79.25
2018-07-25T01:12:42.013Z,79.93
2018-07-25T01:13:52.084Z,79.45
2018-07-25T01:15:02.217Z,79.54
2018-07-25T01:16:12.298Z,79.25
2018-07-25T01:17:22.400Z,79.45
2018-07-25T01:18:32.476Z,79.54
2018-07-25T01:19:42.542Z,79.93
2018-07-25T01:20:52.102Z,79.35
2018-07-25T01:22:01.927Z,79.35
2018-07-25T01:23:12.005Z,79.35
2018-07-25T01:24:21.840Z,79.31
2018-07-25T01:25:31.926Z,79.5
2018-07-25T01:26:41.990Z,79.41
2018-07-25T01:27:52.080Z,79.31
2018-07-25T01:29:02.171Z,79.6
2018-07-25T01:30:12.247Z,79.7
2018-07-25T01:31:22.305Z,79.41
2018-07-25T01:32:32.125Z,79.8
2018-07-25T01:33:41.942Z,79.41
2018-07-25T01:34:51.741Z,79.8
2018-07-25T01:36:01.825Z,79.5
2018-07-25T01:37:11.906Z,79.8
2018-07-25T01:38:21.774Z,79.8
2018-07-25T01:39:31.850Z,79.31
2018-07-25T01:40:41.930Z,79.8
2018-07-25T01:41:52.017Z,79.31
2018-07-25T01:43:01.848Z,79.8
2018-07-25T01:44:11.936Z,79.22
2018-07-25T01:45:22.005Z,79.89
2018-07-25T01:46:32.119Z,79.5
2018-07-25T01:47:42.200Z,79.5
2018-07-25T01:48:52.280Z,79.5
2018-07-25T01:50:01.854Z,79.41
2018-07-25T01:51:11.937Z,79.8
2018-07-25T01:52:22.018Z,79.22
2018-07-25T01:53:31.843Z,79.41
2018-07-25T01:54:41.918Z,79.5
2018-07-25T01:55:51.786Z,79.5
2018-07-25T01:57:01.591Z,79.5
2018-07-25T01:58:11.688Z,79.6
2018-07-25T01:59:21.491Z,79.5
2018-07-25T02:00:31.554Z,79.31
2018-07-25T02:01:41.681Z,79.5
2018-07-25T02:02:51.502Z,79.31
2018-07-25T02:04:01.639Z,79.7
2018-07-25T02:05:11.726Z,79.6
2018-07-25T02:06:21.807Z,78.92
2018-07-25T02:07:31.671Z,79.22
2018-07-25T02:08:41.977Z,79.6
2018-07-25T02:09:52.046Z,79.5
2018-07-25T02:11:01.893Z,79.12
2018-07-25T02:12:11.984Z,79.02
2018-07-25T02:13:21.798Z,79.7
2018-07-25T02:14:31.881Z,79.22
2018-07-25T02:15:41.982Z,79.7
2018-07-25T02:16:52.066Z,79.7
2018-07-25T02:18:02.156Z,79.6
2018-07-25T02:19:12.274Z,79.6
2018-07-25T02:20:22.078Z,79.5
2018-07-25T02:21:32.151Z,79.56
2018-07-25T02:22:41.981Z,79.27
2018-07-25T02:23:52.067Z,79.5
2018-07-25T02:25:02.146Z,79.8
2018-07-25T02:26:12.219Z,79.31
2018-07-25T02:27:22.295Z,79.31
2018-07-25T02:28:32.370Z,79.41
2018-07-25T02:29:42.446Z,79.31
2018-07-25T02:30:52.582Z,79.6
2018-07-25T02:32:02.664Z,79.5
2018-07-25T02:33:12.213Z,79.27
2018-07-25T02:34:22.304Z,79.27
2018-07-25T02:35:32.440Z,79.8
2018-07-25T02:36:42.528Z,79.17
2018-07-25T02:37:52.619Z,79.47
2018-07-25T02:39:02.195Z,79.47
2018-07-25T02:40:12.285Z,79.66
2018-07-25T02:41:22.378Z,79.66
2018-07-25T02:42:32.627Z,79.56
2018-07-25T02:43:43.210Z,79.66
2018-07-25T02:44:53.652Z,79.27
2018-07-25T02:46:03.734Z,79.66
2018-07-25T02:47:13.541Z,79.66
2018-07-25T02:48:23.640Z,79.66
2018-07-25T02:49:33.724Z,79.27
2018-07-25T02:50:43.786Z,79.17
2018-07-25T02:51:53.879Z,79.17
2018-07-25T02:53:03.708Z,79.17
2018-07-25T02:54:13.789Z,79.27
2018-07-25T02:55:23.882Z,79.47
2018-07-25T02:56:33.991Z,79.47
2018-07-25T02:57:44.097Z,79.17
2018-07-25T02:58:54.174Z,79.66
2018-07-25T03:00:04.041Z,79.37
2018-07-25T03:01:14.130Z,79.56
2018-07-25T03:02:24.187Z,79.17
2018-07-25T03:34:59.820Z,73.78
2018-07-25T03:36:09.911Z,74.3
2018-07-25T03:37:20.012Z,74.97
2018-07-25T03:38:30.031Z,75.36
2018-07-25T03:39:39.590Z,76.32
2018-07-25T03:40:49.458Z,76.8
2018-07-25T03:41:59.536Z,76.8
2018-07-25T03:43:09.346Z,77.28
2018-07-25T03:44:19.416Z,77.76
2018-07-25T03:45:29.485Z,78.15
2018-07-25T03:46:39.067Z,77.86
2018-07-25T03:47:49.141Z,77.81
2018-07-25T03:48:58.956Z,78.48
2018-07-25T03:50:09.027Z,78.48
2018-07-25T03:51:19.113Z,78.33
2018-07-25T03:52:28.651Z,78.81
2018-07-25T03:53:38.467Z,78.61
2018-07-25T03:54:48.288Z,78.66
2018-07-25T03:55:58.371Z,78.66
2018-07-25T03:57:08.467Z,78.75
2018-07-25T03:58:18.598Z,78.85
2018-07-25T03:59:28.681Z,78.85
2018-07-25T04:00:38.496Z,78.66
2018-07-25T04:01:48.575Z,78.69
2018-07-25T04:02:58.459Z,78.89
2018-07-25T04:04:08.544Z,78.41
2018-07-25T04:05:18.612Z,78.69
2018-07-25T04:06:28.691Z,78.44
2018-07-25T04:07:38.800Z,78.83
2018-07-25T04:08:48.885Z,78.44
2018-07-25T04:09:58.998Z,78.34
2018-07-25T04:11:08.850Z,78.06
2018-07-25T04:12:18.933Z,77.96
2018-07-25T04:13:28.577Z,78.06
2018-07-25T04:14:38.137Z,78.06
2018-07-25T04:15:48.268Z,78.09
2018-07-25T04:16:58.350Z,78.19
2018-07-25T04:18:08.162Z,78.29
2018-07-25T04:19:18.240Z,78.38
2018-07-25T04:20:28.348Z,78.38
2018-07-25T04:21:38.441Z,78.38
2018-07-25T04:22:48.572Z,78.03
2018-07-25T04:23:58.644Z,77.75
2018-07-25T04:25:08.717Z,77.65
2018-07-25T04:26:18.818Z,77.69
2018-07-25T04:27:29.010Z,76.33
2018-07-25T04:28:41.979Z,74.22
2018-07-25T04:29:54.727Z,72.13
2018-07-25T04:31:07.144Z,70.97
2018-07-25T04:32:17.229Z,69.52
2018-07-25T04:33:27.035Z,69.59
2018-07-25T04:34:37.134Z,69.07
2018-07-25T04:35:47.569Z,68.55
2018-07-25T04:36:57.653Z,68.71
2018-07-25T04:38:07.734Z,68.85
2018-07-25T04:39:17.843Z,68.49
2018-07-25T04:40:27.929Z,68.33
2018-07-25T04:41:37.981Z,68.46
2018-07-25T04:42:48.236Z,68.3
2018-07-25T04:43:58.110Z,68.43
2018-07-25T04:45:08.355Z,68.23
2018-07-25T04:46:18.681Z,68.66
2018-07-25T04:47:29.330Z,68.91
2018-07-25T04:48:39.405Z,70.75
2018-07-25T04:49:49.235Z,72.7
2018-07-25T04:50:59.115Z,73.76
2018-07-25T04:52:09.202Z,74.71
2018-07-25T04:53:19.337Z,74.83
2018-07-25T04:54:29.441Z,74.93
2018-07-25T04:55:39.516Z,74.93
2018-07-25T04:56:49.327Z,74.15
2018-07-25T04:57:59.401Z,72.95
2018-07-25T04:59:09.493Z,73.27
2018-07-25T05:00:19.578Z,73.93
2018-07-25T05:01:29.417Z,72.27
2018-07-25T05:02:39.558Z,71.32
2018-07-25T05:03:49.376Z,71
2018-07-25T05:04:59.475Z,70.64
2018-07-25T05:06:09.304Z,69.34
2018-07-25T05:07:19.445Z,68.85
2018-07-25T05:08:29.514Z,68.49
2018-07-25T05:09:39.367Z,68.13
2018-07-25T05:10:49.467Z,68.07
2018-07-25T05:11:58.774Z,67.61
2018-07-25T05:13:08.854Z,67.45
2018-07-25T05:14:18.929Z,67.19
2018-07-25T05:15:28.999Z,67.48
2018-07-25T05:16:39.068Z,67.38
2018-07-25T05:17:49.191Z,67.77
2018-07-25T05:18:59.261Z,68.27
2018-07-25T05:20:09.324Z,68.56
2018-07-25T05:21:19.606Z,68.17
2018-07-25T05:22:29.688Z,68.27
2018-07-25T05:23:39.759Z,68.1
2018-07-25T05:24:49.841Z,67.61
2018-07-25T05:25:59.720Z,67.44
2018-07-25T05:27:09.796Z,67.81
2018-07-25T05:28:19.366Z,67.94
2018-07-25T05:29:29.481Z,68.3
2018-07-25T05:30:39.562Z,68.1
2018-07-25T05:31:49.648Z,68.04
2018-07-25T05:32:59.474Z,68.04
2018-07-25T05:34:09.570Z,68.24
2018-07-25T05:35:19.654Z,68.13
2018-07-25T05:36:29.471Z,68.53
2018-07-25T05:37:39.550Z,68.5
2018-07-25T05:38:49.633Z,68.6
2018-07-25T05:39:59.715Z,68.89
2018-07-25T05:41:09.809Z,69.18
2018-07-25T05:42:19.893Z,69.15
2018-07-25T05:43:29.712Z,69.06
2018-07-25T05:44:39.791Z,68.96
2018-07-25T05:45:49.608Z,69.06
2018-07-25T05:46:59.689Z,68.96
2018-07-25T05:48:09.764Z,69.35
2018-07-25T05:49:19.943Z,68.86
2018-07-25T05:50:30.208Z,69.12
2018-07-25T05:51:40.390Z,68.92
2018-07-25T05:52:50.481Z,68.92
2018-07-25T05:54:00.028Z,69.02
2018-07-25T05:55:10.114Z,69.12
2018-07-25T05:56:20.196Z,69.02
2018-07-25T05:57:30.279Z,69.18
2018-07-25T05:58:40.429Z,69.48
2018-07-25T05:59:50.365Z,69.87
2018-07-25T06:01:00.453Z,69.25
2018-07-25T06:02:10.546Z,69.64
2018-07-25T06:03:20.638Z,70.29
2018-07-25T06:04:31.083Z,69.81
2018-07-25T06:05:40.916Z,69.9
2018-07-25T06:06:50.869Z,70.26
2018-07-25T06:08:00.422Z,70.46
2018-07-25T06:09:10.530Z,70.26
2018-07-25T06:10:20.866Z,69.96
2018-07-25T06:11:30.953Z,71.34
2018-07-25T06:12:41.095Z,70.75
2018-07-25T06:13:51.012Z,70.91
2018-07-25T06:15:01.126Z,71.27
2018-07-25T06:16:10.950Z,72.25
2018-07-25T06:17:21.033Z,73.06
2018-07-25T06:18:31.139Z,74.36
2018-07-25T06:19:41.273Z,75.66
2018-07-25T06:20:51.368Z,75.88
2018-07-25T06:22:01.198Z,76.62
2018-07-25T06:23:11.282Z,76.78
2018-07-25T06:24:21.369Z,76.78
2018-07-25T06:25:31.474Z,76.45
2018-07-25T06:26:41.565Z,75.86
2018-07-25T06:27:51.645Z,75.47
2018-07-25T06:29:01.744Z,75.67
2018-07-25T06:30:11.839Z,75.67
2018-07-25T06:31:22.072Z,75.86
2018-07-25T06:32:32.215Z,75.37
2018-07-25T06:33:42.316Z,75.86
2018-07-25T06:34:52.569Z,75.73
2018-07-25T06:36:02.791Z,76.61
2018-07-25T06:37:12.894Z,76.51
2018-07-25T06:38:22.731Z,75.69
2018-07-25T06:39:32.822Z,75.43
2018-07-25T06:40:42.917Z,74.85
2018-07-25T06:41:52.997Z,74.79
2018-07-25T06:43:02.829Z,73.85
2018-07-25T06:44:12.943Z,73.85
2018-07-25T06:45:23.050Z,74.05
2018-07-25T06:46:32.867Z,74.05
2018-07-25T06:47:42.961Z,73.85
2018-07-25T06:48:53.030Z,74.24
2018-07-25T06:50:02.849Z,74.34
2018-07-25T06:51:12.656Z,74.24
2018-07-25T06:52:22.725Z,74.15
2018-07-25T06:53:32.811Z,74.63
2018-07-25T06:54:42.946Z,74.54
2018-07-25T06:55:53.039Z,74.44
2018-07-25T06:57:02.861Z,74.54
2018-07-25T06:58:13.019Z,74.54
2018-07-25T06:59:23.107Z,75.02
2018-07-25T07:00:32.662Z,74.93
2018-07-25T07:01:42.754Z,74.73
2018-07-25T07:02:52.560Z,75.21
2018-07-25T07:04:02.374Z,74.98
2018-07-25T07:05:12.480Z,75.27
2018-07-25T07:06:22.366Z,75.47
2018-07-25T07:07:32.218Z,75.96
2018-07-25T07:08:42.016Z,75.82
2018-07-25T07:09:52.090Z,76.41
2018-07-25T07:11:02.173Z,76.31
2018-07-25T07:12:12.099Z,76.51
2018-07-25T07:13:22.344Z,76.61
2018-07-25T07:14:32.421Z,76.41
2018-07-25T07:15:42.509Z,76.41
2018-07-25T07:16:52.579Z,76.31
2018-07-25T07:18:02.395Z,76.21
2018-07-25T07:19:12.719Z,76.41
2018-07-25T07:20:22.813Z,76.51
2018-07-25T07:21:32.907Z,76.31
2018-07-25T07:22:42.977Z,76.21
2018-07-25T07:23:52.643Z,76.41
2018-07-25T07:25:02.894Z,76.21
2018-07-25T07:26:12.972Z,76.12
2018-07-25T07:27:22.797Z,76.02
2018-07-25T07:28:32.876Z,76.51
2018-07-25T07:29:42.693Z,76.61
2018-07-25T07:30:52.783Z,75.92
2018-07-25T07:32:02.879Z,75.92
2018-07-25T07:33:12.753Z,75.43
2018-07-25T07:34:22.833Z,75.73
2018-07-25T07:35:32.949Z,75.53
2018-07-25T07:36:43.028Z,75.86
2018-07-25T07:37:53.439Z,75.57
2018-07-25T07:39:03.421Z,75.47
2018-07-25T07:40:13.241Z,75.7
2018-07-25T07:41:23.323Z,75.8
2018-07-25T07:42:33.139Z,75.9
2018-07-25T07:43:42.975Z,75.7
2018-07-25T07:44:53.049Z,75.7
2018-07-25T07:46:03.133Z,75.51
2018-07-25T07:47:13.215Z,75.9
2018-07-25T07:48:23.014Z,75.9
2018-07-25T07:49:32.839Z,75.9
2018-07-25T07:50:42.399Z,75.7
2018-07-25T07:51:52.484Z,75.84
2018-07-25T07:53:02.570Z,75.41
2018-07-25T07:54:12.652Z,75.84
2018-07-25T07:55:22.738Z,75.8
2018-07-25T07:56:32.837Z,75.9
2018-07-25T07:57:42.921Z,75.74
2018-07-25T07:58:52.769Z,75.41
2018-07-25T08:00:02.607Z,75.45
2018-07-25T08:01:12.693Z,75.74
2018-07-25T08:02:22.774Z,75.64
2018-07-25T08:03:32.906Z,75.93
2018-07-25T08:04:43.007Z,75.29
2018-07-25T08:05:53.101Z,75.39
2018-07-25T08:07:03.189Z,75.29
2018-07-25T08:08:12.752Z,74.64
2018-07-25T08:09:22.605Z,74.64
2018-07-25T08:10:32.572Z,74.64
2018-07-25T08:11:42.912Z,74.84
2018-07-25T08:12:52.754Z,75.04
2018-07-25T08:14:02.622Z,75.33
2018-07-25T08:15:12.724Z,75.52
2018-07-25T08:16:22.595Z,75.43
2018-07-25T08:17:32.740Z,75.72
2018-07-25T08:18:43.030Z,75.72
2018-07-25T08:19:52.870Z,75.68
2018-07-25T08:21:03.195Z,75.92
2018-07-25T08:22:13.279Z,75.92
2018-07-25T08:23:23.381Z,75.33
2018-07-25T08:24:33.487Z,75.43
2018-07-25T08:25:43.062Z,75.17
2018-07-25T08:26:53.028Z,75.33
2018-07-25T08:28:03.112Z,75.23
2018-07-25T08:29:13.259Z,76.05
2018-07-25T08:30:23.352Z,75.76
2018-07-25T08:31:33.688Z,75.85
2018-07-25T08:32:43.796Z,75.66
2018-07-25T08:33:53.683Z,75.46
2018-07-25T08:35:03.794Z,75.76
2018-07-25T08:36:13.635Z,75.85
2018-07-25T08:37:23.731Z,75.66
2018-07-25T08:38:33.841Z,75.89
2018-07-25T08:39:43.675Z,75.79
2018-07-25T08:40:53.788Z,75.7
2018-07-25T08:42:03.892Z,75.89
2018-07-25T08:43:13.715Z,75.89
2018-07-25T08:44:23.604Z,75.89
2018-07-25T08:45:33.695Z,75.6
2018-07-25T08:46:43.865Z,75.89
2018-07-25T08:47:54.171Z,75.89
2018-07-25T08:49:04.323Z,76.18
2018-07-25T08:50:14.140Z,75.99
2018-07-25T08:51:23.976Z,75.89
2018-07-25T08:52:34.248Z,76.09
2018-07-25T08:53:44.480Z,76.12
2018-07-25T08:54:54.057Z,76.12
2018-07-25T08:56:04.140Z,75.99
2018-07-25T08:57:14.302Z,75.79
2018-07-25T08:58:24.540Z,75.89
2018-07-25T08:59:34.635Z,76.22
2018-07-25T09:00:44.747Z,76.12
2018-07-25T09:01:55.042Z,75.93
2018-07-25T09:03:04.934Z,75.99
2018-07-25T09:04:14.521Z,76.22
2018-07-25T09:05:24.617Z,76.12
2018-07-25T09:06:34.402Z,75.73
2018-07-25T09:07:44.801Z,75.99
2018-07-25T09:08:54.910Z,76.03
2018-07-25T09:10:05.013Z,76.09
2018-07-25T09:11:15.120Z,76.12
2018-07-25T09:12:25.259Z,75.83
2018-07-25T09:13:35.411Z,76.03
2018-07-25T09:14:45.507Z,75.93
2018-07-25T09:15:55.627Z,75.54
2018-07-25T09:17:06.615Z,76.12
2018-07-25T09:18:16.765Z,75.83
2018-07-25T09:19:26.901Z,75.63
2018-07-25T09:20:37.008Z,75.34
2018-07-25T09:21:46.315Z,75.34
2018-07-25T09:22:56.409Z,75.57
2018-07-25T09:24:06.552Z,75.67
2018-07-25T09:25:16.900Z,75.48
2018-07-25T09:26:27.347Z,75.38
2018-07-25T09:27:37.443Z,75.38
2018-07-25T09:28:47.574Z,75.18
2018-07-25T09:29:57.505Z,75.77
2018-07-25T09:31:07.630Z,75.67
2018-07-25T09:32:17.748Z,75.51
2018-07-25T09:33:27.903Z,75.32
2018-07-25T09:34:37.756Z,75.57
2018-07-25T09:35:47.885Z,75.57
2018-07-25T09:36:57.777Z,75.57
2018-07-25T09:38:07.898Z,75.42
2018-07-25T09:39:18.270Z,75.61
2018-07-25T09:40:28.505Z,75.02
2018-07-25T09:41:38.769Z,75.22
2018-07-25T09:42:48.926Z,75.12
2018-07-25T09:43:59.101Z,75.26
2018-07-25T09:45:09.274Z,74.76
2018-07-25T09:46:19.205Z,74.21
2018-07-25T09:47:29.589Z,74.6
2018-07-25T09:48:39.789Z,74.44
2018-07-25T09:49:50.089Z,74.84
2018-07-25T09:51:00.289Z,74.77
2018-07-25T09:52:10.161Z,74.48
2018-07-25T09:53:20.349Z,74.54
2018-07-25T09:54:30.509Z,75.03
2018-07-25T09:55:40.726Z,75.98
2018-07-25T09:56:50.923Z,76.04
2018-07-25T09:58:00.563Z,75.9
2018-07-25T09:59:10.766Z,75.94
2018-07-25T10:00:20.977Z,74.8
2018-07-25T10:01:31.153Z,75.09
2018-07-25T10:02:41.387Z,75.03
2018-07-25T10:03:51.576Z,74.54
2018-07-25T10:05:01.754Z,74.68
2018-07-25T10:06:11.674Z,74.02
2018-07-25T10:07:22.186Z,74.06
2018-07-25T10:08:32.835Z,74.06
2018-07-25T10:09:43.580Z,74.19
2018-07-25T10:10:53.869Z,73.11
2018-07-25T10:12:05.139Z,73.05
2018-07-25T10:13:16.751Z,74.04
2018-07-25T10:14:29.146Z,73.15
2018-07-25T10:15:40.501Z,73.15
2018-07-25T10:16:51.496Z,73.38
2018-07-25T10:18:02.316Z,73.48
2018-07-25T10:19:12.592Z,73.32
2018-07-25T10:20:22.765Z,74.3
2018-07-25T10:21:32.929Z,73.68
2018-07-25T10:22:42.934Z,73.77
2018-07-25T10:23:52.801Z,73.88
2018-07-25T10:25:02.424Z,73.77
2018-07-25T10:26:12.029Z,74.07
2018-07-25T10:27:22.348Z,74.46
2018-07-25T10:28:32.536Z,74.82
2018-07-25T10:29:42.223Z,75.61
2018-07-25T10:30:52.416Z,76.12
2018-07-25T10:32:02.325Z,76.58
2018-07-25T10:33:12.317Z,76.84
2018-07-25T10:34:22.534Z,76.4
2018-07-25T10:35:32.517Z,75.95
2018-07-25T10:36:42.729Z,75.79
2018-07-25T10:37:52.639Z,75.3
2018-07-25T10:39:02.959Z,75.34
2018-07-25T10:40:13.515Z,74.95
2018-07-25T10:41:23.377Z,74.98
2018-07-25T10:42:33.731Z,75.37
2018-07-25T10:43:44.278Z,75.27
2018-07-25T10:44:54.427Z,74.63
2018-07-25T10:46:04.028Z,74.63
2018-07-25T10:47:14.174Z,74.63
2018-07-25T10:48:24.049Z,74.63
2018-07-25T10:49:34.162Z,74.82
2018-07-25T10:50:44.335Z,74.82
2018-07-25T10:51:54.430Z,75.21
2018-07-25T10:53:04.611Z,75.12
2018-07-25T10:54:14.730Z,75.31
2018-07-25T10:55:24.901Z,74.63
2018-07-25T10:56:34.481Z,74.52
2018-07-25T10:57:44.338Z,74.52
2018-07-25T10:58:54.478Z,74.3
2018-07-25T11:00:04.640Z,74.15
2018-07-25T11:01:14.777Z,74.24
2018-07-25T11:02:24.964Z,74.6
2018-07-25T11:03:35.154Z,74.4
2018-07-25T11:04:45.072Z,74.3
2018-07-25T11:05:55.286Z,73.46
2018-07-25T11:07:05.492Z,74.28
2018-07-25T11:08:15.423Z,74.24
2018-07-25T11:09:25.550Z,74.3
2018-07-25T11:10:35.797Z,74.69
2018-07-25T11:11:45.892Z,74.15
2018-07-25T11:12:56.007Z,73.69
2018-07-25T11:14:05.877Z,74.44
2018-07-25T11:15:16.033Z,75.29
2018-07-25T11:16:26.200Z,74.86
2018-07-25T11:17:36.798Z,74.76
2018-07-25T11:18:47.293Z,75.21
2018-07-25T11:19:58.008Z,75.02
2018-07-25T11:21:09.102Z,75.45
2018-07-25T11:22:21.022Z,74.66
2018-07-25T11:23:31.654Z,74.4
2018-07-25T11:24:43.611Z,74.3
2018-07-25T11:25:54.721Z,73.46
2018-07-25T11:27:04.650Z,72.34
2018-07-25T11:28:14.705Z,71.98
2018-07-25T11:29:24.831Z,72.31
2018-07-25T11:30:34.670Z,72.05
2018-07-25T11:31:44.736Z,72.55
2018-07-25T11:32:55.034Z,72.61
2018-07-25T11:34:05.425Z,73.36
2018-07-25T11:35:15.247Z,73.16
2018-07-25T11:36:25.123Z,73.16
2018-07-25T11:37:35.212Z,73.75
2018-07-25T11:38:45.310Z,73.56
2018-07-25T11:39:55.416Z,73.92
2018-07-25T11:41:05.490Z,73.82
2018-07-25T11:42:15.324Z,74.21
2018-07-25T11:43:25.423Z,73.23
2018-07-25T11:44:35.526Z,73.86
2018-07-25T11:45:45.621Z,73.56
2018-07-25T11:46:55.690Z,73.27
2018-07-25T11:48:05.821Z,73.86
2018-07-25T11:49:15.651Z,73.16
2018-07-25T11:50:25.943Z,72.22
2018-07-25T11:51:36.487Z,72.09
2018-07-25T11:52:46.580Z,71.23
2018-07-25T11:53:56.698Z,71.66
2018-07-25T11:55:06.537Z,72.02
2018-07-25T11:56:16.684Z,71.83
2018-07-25T11:57:26.515Z,71.96
2018-07-25T11:58:36.625Z,71.6
2018-07-25T11:59:46.514Z,71
2018-07-25T12:00:56.639Z,71.89
2018-07-25T12:02:06.800Z,72.55
2018-07-25T12:03:16.739Z,73.31
2018-07-25T12:04:26.566Z,73.83
2018-07-25T12:05:36.705Z,74.48
2018-07-25T12:06:46.883Z,74.55
2018-07-25T12:07:57.049Z,75.7
2018-07-25T12:09:07.218Z,75.13
2018-07-25T12:10:17.404Z,75.48
2018-07-25T12:11:28.590Z,76.43
2018-07-25T12:12:38.514Z,76.29
2018-07-25T12:13:48.657Z,76.06
2018-07-25T12:14:58.879Z,76.32
2018-07-25T12:16:09.003Z,76.52
2018-07-25T12:17:18.868Z,77.17
2018-07-25T12:18:29.013Z,76.28
2018-07-25T12:19:38.867Z,75.24
2018-07-25T12:20:48.748Z,75.44
2018-07-25T12:21:59.400Z,74.98
2018-07-25T12:23:10.202Z,75.12
2018-07-25T12:24:21.455Z,74.73
2018-07-25T12:25:33.149Z,74.82
2018-07-25T12:26:44.292Z,74.37
2018-07-25T12:27:56.973Z,74.17
2018-07-25T12:29:08.478Z,74.21
2018-07-25T12:30:19.260Z,73.81
2018-07-25T12:31:29.891Z,74.15
2018-07-25T12:32:40.941Z,73.46
2018-07-25T12:33:51.228Z,73.49
2018-07-25T12:35:01.485Z,73.49
2018-07-25T12:36:11.611Z,73.29
2018-07-25T12:37:21.781Z,73.13
2018-07-25T12:38:31.945Z,73.23
2018-07-25T12:39:41.870Z,72.67
2018-07-25T12:40:52.063Z,73.36
2018-07-25T12:42:02.185Z,73.16
2018-07-25T12:43:12.352Z,73.36
2018-07-25T12:44:22.558Z,73.36
2018-07-25T12:45:32.711Z,73.27
2018-07-25T12:46:42.888Z,73.27
2018-07-25T12:47:52.779Z,73.69
2018-07-25T12:49:02.682Z,73.49
2018-07-25T12:50:12.864Z,73.72
2018-07-25T12:51:22.785Z,73.33
2018-07-25T12:52:33.009Z,73.16
2018-07-25T12:53:43.203Z,72.58
2018-07-25T12:54:53.510Z,72.41
2018-07-25T12:56:03.720Z,72.61
2018-07-25T12:57:13.909Z,72.84
2018-07-25T12:58:24.102Z,71.86
2018-07-25T12:59:34.328Z,72.09
2018-07-25T13:00:44.546Z,72.09
2018-07-25T13:01:54.542Z,72.09
2018-07-25T13:03:04.702Z,72.78
2018-07-25T13:04:14.872Z,72.81
2018-07-25T13:05:24.797Z,72.38
2018-07-25T13:06:34.713Z,72.12
2018-07-25T13:07:44.922Z,72.12
2018-07-25T13:08:55.110Z,72.25
2018-07-25T13:10:05.386Z,72.06
2018-07-25T13:11:15.596Z,72.45
2018-07-25T13:12:25.770Z,72.45
2018-07-25T13:13:35.946Z,72.16
2018-07-25T13:14:46.159Z,72.65
2018-07-25T13:15:56.558Z,72.45
2018-07-25T13:17:07.151Z,73.31
2018-07-25T13:18:17.356Z,73.96
2018-07-25T13:19:27.257Z,74.65
2018-07-25T13:20:37.420Z,75.07
2018-07-25T13:21:47.597Z,75.24
2018-07-25T13:22:57.889Z,75.66
2018-07-25T13:24:08.382Z,75.66
2018-07-25T13:25:18.250Z,76.41
2018-07-25T13:26:28.461Z,76.57
2018-07-25T13:27:38.087Z,76.23
2018-07-25T13:28:48.404Z,76.98
2018-07-25T13:29:58.240Z,77.14
2018-07-25T13:31:08.123Z,77.34
2018-07-25T13:32:18.346Z,77.5
2018-07-25T13:33:28.265Z,77.76
2018-07-25T13:34:38.190Z,77.62
2018-07-25T13:35:48.387Z,77.72
2018-07-25T13:36:58.803Z,77.33
2018-07-25T13:38:09.193Z,75.95
2018-07-25T13:39:19.344Z,75.4
2018-07-25T13:40:29.523Z,75.24
2018-07-25T13:41:39.452Z,75.18
2018-07-25T13:42:49.334Z,75.08
2018-07-25T13:43:59.870Z,75.21
2018-07-25T13:45:10.076Z,74.73
2018-07-25T13:46:19.899Z,74.76
2018-07-25T13:47:30.524Z,74.46
2018-07-25T13:48:40.735Z,74.21
2018-07-25T13:49:50.922Z,74.3
2018-07-25T13:51:01.143Z,74.3
2018-07-25T13:52:11.344Z,74.93
2018-07-25T13:53:21.651Z,74.24
2018-07-25T13:54:32.434Z,74.63
2018-07-25T13:55:43.065Z,73.85
2018-07-25T13:56:54.121Z,74.08
2018-07-25T13:58:05.073Z,74.18
2018-07-25T13:59:16.525Z,74.28
2018-07-25T14:00:27.847Z,74.38
2018-07-25T14:01:38.682Z,74.38
2018-07-25T14:02:50.220Z,74.38
2018-07-25T14:04:00.995Z,74.97
2018-07-25T14:05:11.560Z,75.42
2018-07-25T14:06:21.824Z,75.29
2018-07-25T14:07:32.026Z,74.8
2018-07-25T14:08:43.207Z,75.13
2018-07-25T14:09:53.104Z,74.93
2018-07-25T14:11:03.312Z,74.44
2018-07-25T14:12:13.747Z,74.77
2018-07-25T14:13:24.046Z,74.77
2018-07-25T14:14:34.053Z,74.38
2018-07-25T14:15:43.953Z,74.38
2018-07-25T14:16:53.826Z,74.38
2018-07-25T14:18:03.850Z,74.41
2018-07-25T14:19:14.478Z,74.41
2018-07-25T14:20:24.430Z,74.11
2018-07-25T14:21:34.624Z,74.87
2018-07-25T14:22:44.801Z,74.97
2018-07-25T14:23:55.640Z,74.77
2018-07-25T14:25:07.095Z,74.83
2018-07-25T14:26:17.004Z,75.38
2018-07-25T14:27:27.195Z,75.15
2018-07-25T14:28:37.566Z,75.35
2018-07-25T14:29:48.196Z,75.55
2018-07-25T14:30:58.370Z,75.84
2018-07-25T14:32:08.590Z,75.81
2018-07-25T14:33:18.831Z,76.29
2018-07-25T14:34:29.039Z,76.35
2018-07-25T14:35:39.252Z,77.2
2018-07-25T14:36:49.438Z,77.17
2018-07-25T14:37:59.671Z,77.23
2018-07-25T14:39:09.563Z,77.13
2018-07-25T14:40:20.241Z,77.23
2018-07-25T14:41:31.288Z,77.29
2018-07-25T14:42:41.476Z,77.29
2018-07-25T14:43:51.374Z,77.15
2018-07-25T14:45:01.535Z,77.25
2018-07-25T14:46:11.714Z,76.96
2018-07-25T14:47:21.610Z,76.86
2018-07-25T14:48:31.831Z,76.96
2018-07-25T14:49:41.805Z,76.21
2018-07-25T14:50:51.992Z,75.62
2018-07-25T14:52:02.224Z,75.07
2018-07-25T14:53:12.418Z,75.2
2018-07-25T14:54:22.139Z,75.3
2018-07-25T14:55:32.201Z,75.14
2018-07-25T14:56:42.426Z,74.65
2018-07-25T14:57:52.699Z,75.04
2018-07-25T14:59:02.900Z,74.88
2018-07-25T15:00:13.131Z,75.27
2018-07-25T15:01:23.303Z,75.12
2018-07-25T15:02:33.757Z,74.73
2018-07-25T15:03:43.959Z,75.02
2018-07-25T15:04:53.591Z,74.92
2018-07-25T15:06:03.495Z,74.96
2018-07-25T15:07:13.427Z,74.96
2018-07-25T15:08:23.042Z,74.86
2018-07-25T15:09:33.245Z,74.66
2018-07-25T15:10:43.182Z,75.21
2018-07-25T15:11:53.113Z,75.61
2018-07-25T15:13:03.091Z,75.27
2018-07-25T15:14:13.892Z,75.37
2018-07-25T15:15:24.096Z,75.67
2018-07-25T15:16:34.286Z,75.93
2018-07-25T15:17:44.599Z,76.28
2018-07-25T15:18:54.009Z,77.03
2018-07-25T15:20:04.202Z,77.68
2018-07-25T15:21:14.429Z,77.15
2018-07-25T15:22:24.591Z,77.51
2018-07-25T15:23:34.768Z,78
2018-07-25T15:24:45.250Z,78.16
2018-07-25T15:25:55.182Z,78.02
2018-07-25T15:27:05.125Z,77.83
2018-07-25T15:28:15.394Z,77.83
2018-07-25T15:29:26.232Z,77.88
2018-07-25T15:30:36.993Z,77.59
2018-07-25T15:32:57.216Z,77.1
2018-07-25T15:34:07.489Z,77.49
2018-07-25T15:35:17.753Z,77.29
2018-07-25T15:36:27.757Z,77.29
2018-07-25T15:37:37.959Z,77.29
2018-07-25T15:38:48.316Z,77.49